首页
METAR-TAF:

METAR-TAF

机场 :

圣加仑, 瑞士

纬度: 47-29-06N, 经度: 009-33-43E, 海拔: 398米

当前天气观测

该预报发布于35分钟前的08:50 UTC
风速2节,风向多变
温度 16°C
湿度 59%
气压 1019 hPa
能见度10公里或以上
1500米以下无云,无积雨云

METAR: LSZR 010850Z VRB02KT CAVOK 16/08 Q1019 NOSIG RMK C

时间: 11:25 (09:25 UTC)

预报

该预报发布于1小时和0分钟前的08:25 UTC
预报有效从01日的 09点(UTC)到 01日的 18点(UTC)
风速3节,风向多变
能见度10公里或以上
1500米以下无云,无积雨云
短暂存在
从 01日的 11点(UTC)到 01日的 17点(UTC)
风速8节,风向北转西北

TAF: LSZR 010825Z 0109/0118 VRB03KT CAVOK TEMPO 0111/0117 34008KT

超过4000个机场的气象观测和天气预报(METAR&TAF报告)。

可查询的气象台以黄色和红色小点在地图上表示。

将鼠标移到小点上方,可查看气象台名称。

然后点击查看天气观测和预报。

如需切换地图:点击带黑十字的绿色按钮放大地图;点击带横线的绿色按钮缩小地图;或者点击绿色箭头查看邻近地区的地图。


METAR-TAF: